createdAt,value
2018-06-12T00:04:14.179Z,1.8
2018-06-12T00:09:13.591Z,1.8
2018-06-12T00:14:13.367Z,2.1
2018-06-12T00:19:14.214Z,2.1
2018-06-12T00:24:14.203Z,1.8
2018-06-12T00:29:13.893Z,1.8
2018-06-12T00:34:13.829Z,1.8
2018-06-12T00:39:13.554Z,1.8
2018-06-12T00:44:13.221Z,2.2
2018-06-12T00:49:13.889Z,2.2
2018-06-12T00:54:13.634Z,2.1
2018-06-12T00:59:13.397Z,2.1
2018-06-12T01:04:13.360Z,1.8
2018-06-12T01:09:13.928Z,1.8
2018-06-12T01:14:13.647Z,1.7
2018-06-12T01:19:13.474Z,1.7
2018-06-12T01:24:14.265Z,2.1
2018-06-12T01:29:14.049Z,2.1
2018-06-12T01:34:13.898Z,2.2
2018-06-12T01:39:13.681Z,2.2
2018-06-12T01:44:13.408Z,1.3
2018-06-12T01:49:14.257Z,1.3
2018-06-12T01:54:14.084Z,1.3
2018-06-12T01:59:13.877Z,1.3
2018-06-12T02:04:13.822Z,1.3
2018-06-12T02:09:13.709Z,1.3
2018-06-12T02:14:13.611Z,1.3
2018-06-12T02:19:13.341Z,1.3
2018-06-12T02:24:14.042Z,1.1
2018-06-12T02:29:13.816Z,1.1
2018-06-12T02:34:13.588Z,1.4
2018-06-12T02:39:13.318Z,1.4
2018-06-12T02:44:14.070Z,0.9
2018-06-12T02:49:13.775Z,0.9
2018-06-12T02:54:13.492Z,1.3
2018-06-12T02:59:14.215Z,1.3
2018-06-12T03:04:14.237Z,1.3
2018-06-12T03:09:13.901Z,1.3
2018-06-12T03:14:13.812Z,1.3
2018-06-12T03:19:13.610Z,1.3
2018-06-12T03:24:14.284Z,1.3
2018-06-12T03:29:13.923Z,1.3
2018-06-12T03:34:13.740Z,1.3
2018-06-12T03:39:13.433Z,1.3
2018-06-12T03:44:14.192Z,0.9
2018-06-12T03:49:14.033Z,0.9
2018-06-12T03:54:13.793Z,1.3
2018-06-12T03:59:13.543Z,1.3
2018-06-12T04:04:13.592Z,1.6
2018-06-12T04:09:13.642Z,1.6
2018-06-12T04:14:13.461Z,1.3
2018-06-12T04:19:14.425Z,1.3
2018-06-12T04:24:14.142Z,1.8
2018-06-12T04:29:14.257Z,1.8
2018-06-12T04:34:13.865Z,1.7
2018-06-12T04:39:13.597Z,1.7
2018-06-12T04:44:14.380Z,1.3
2018-06-12T04:49:14.249Z,1.3
2018-06-12T04:54:14.012Z,1.3
2018-06-12T04:59:13.759Z,1.3
2018-06-12T05:04:13.720Z,1.8
2018-06-12T05:09:13.726Z,1.8
2018-06-12T05:14:13.603Z,1.8
2018-06-12T05:19:14.359Z,1.8
2018-06-12T05:24:14.101Z,1.4
2018-06-12T05:29:13.791Z,1.4
2018-06-12T05:34:13.556Z,1.8
2018-06-12T05:39:14.313Z,1.8
2018-06-12T05:44:14.108Z,2.2
2018-06-12T05:49:13.869Z,2.2
2018-06-12T05:54:13.559Z,1.8
2018-06-12T05:59:14.322Z,1.8
2018-06-12T06:04:14.551Z,2.2
2018-06-12T06:09:14.331Z,2.2
2018-06-12T06:14:14.281Z,2.2
2018-06-12T06:19:14.205Z,2.2
2018-06-12T06:24:13.935Z,1.8
2018-06-12T06:29:13.694Z,1.8
2018-06-12T06:34:14.571Z,2.2
2018-06-12T06:39:14.282Z,2.2
2018-06-12T06:44:14.143Z,1.8
2018-06-12T06:49:13.859Z,1.8
2018-06-12T06:54:14.512Z,1.8
2018-06-12T06:59:14.206Z,1.8
2018-06-12T07:04:14.222Z,1.8
2018-06-12T07:09:13.644Z,1.8
2018-06-12T07:14:14.379Z,1.6
2018-06-12T07:19:14.263Z,1.6
2018-06-12T07:24:14.043Z,1.8
2018-06-12T07:29:13.731Z,1.8
2018-06-12T07:34:14.471Z,1.9
2018-06-12T07:39:14.283Z,1.9
2018-06-12T07:44:13.913Z,1.9
2018-06-12T07:49:14.683Z,1.9
2018-06-12T07:54:14.419Z,2.2
2018-06-12T07:59:14.094Z,2.2
2018-06-12T08:04:14.357Z,2.2
2018-06-12T08:09:14.366Z,2.2
2018-06-12T08:14:14.188Z,2.2
2018-06-12T08:19:13.925Z,2.2
2018-06-12T08:24:14.573Z,1.8
2018-06-12T08:29:14.327Z,1.8
2018-06-12T08:34:14.085Z,2.2
2018-06-12T08:39:13.795Z,2.2
2018-06-12T08:44:14.388Z,2.2
2018-06-12T08:49:14.149Z,2.2
2018-06-12T08:54:13.828Z,2.2
2018-06-12T08:59:14.549Z,2.2
2018-06-12T09:04:14.319Z,2.7
2018-06-12T09:09:14.396Z,2.7
2018-06-12T09:14:14.269Z,2.2
2018-06-12T09:19:14.019Z,2.2
2018-06-12T09:24:14.684Z,2.1
2018-06-12T09:29:14.353Z,2.1
2018-06-12T09:34:14.132Z,1.8
2018-06-12T09:39:13.806Z,1.8
2018-06-12T09:44:14.480Z,2.2
2018-06-12T09:49:14.275Z,2.2
2018-06-12T09:54:14.065Z,2.1
2018-06-12T09:59:14.733Z,2.1
2018-06-12T10:04:14.596Z,1.8
2018-06-12T10:09:13.893Z,1.8
2018-06-12T10:14:14.575Z,2.2
2018-06-12T10:19:14.319Z,2.2
2018-06-12T10:24:13.952Z,2
2018-06-12T10:29:14.803Z,2
2018-06-12T10:34:14.600Z,1.3
2018-06-12T10:39:13.845Z,1.3
2018-06-12T10:44:14.537Z,1.9
2018-06-12T10:49:14.521Z,1.9
2018-06-12T10:54:14.176Z,2.2
2018-06-12T10:59:14.139Z,2.2
2018-06-12T11:04:13.973Z,1.8
2018-06-12T11:09:14.307Z,1.8
2018-06-12T11:14:14.360Z,2.2
2018-06-12T11:19:14.123Z,2.2
2018-06-12T11:24:14.858Z,2.2
2018-06-12T11:29:14.657Z,2.2
2018-06-12T11:34:14.470Z,2.4
2018-06-12T11:39:14.819Z,2.4
2018-06-12T11:44:14.561Z,1.8
2018-06-12T11:49:14.430Z,1.8
2018-06-12T11:54:14.144Z,2.1
2018-06-12T11:59:14.845Z,2.1
2018-06-12T12:04:14.691Z,2.2
2018-06-12T12:09:14.459Z,2.2
2018-06-12T12:14:14.208Z,2.2
2018-06-12T12:19:14.009Z,2.2
2018-06-12T12:24:14.661Z,2.2
2018-06-12T12:29:15.067Z,2.2
2018-06-12T12:34:14.849Z,2.7
2018-06-12T12:39:14.500Z,2.7
2018-06-12T12:44:14.129Z,2
2018-06-12T12:49:14.935Z,2
2018-06-12T12:54:14.743Z,1.8
2018-06-12T12:59:14.423Z,1.8
2018-06-12T13:04:14.244Z,2.2
2018-06-12T13:09:15.041Z,2.2
2018-06-12T13:14:14.269Z,2.7
2018-06-12T13:19:15.006Z,2.7
2018-06-12T13:24:14.695Z,2.1
2018-06-12T13:29:14.409Z,2.1
2018-06-12T13:34:14.106Z,2.4
2018-06-12T13:39:14.779Z,2.4
2018-06-12T13:44:14.473Z,1.8
2018-06-12T13:49:14.200Z,1.8
2018-06-12T13:54:14.101Z,2.2
2018-06-12T13:59:14.845Z,2.2
2018-06-12T14:04:14.482Z,1.8
2018-06-12T14:09:14.903Z,1.8
2018-06-12T14:14:14.226Z,1.8
2018-06-12T14:19:14.880Z,1.8
2018-06-12T14:24:14.646Z,1.8
2018-06-12T14:29:14.375Z,1.8
2018-06-12T14:34:14.259Z,1.8
2018-06-12T14:39:15.037Z,1.8
2018-06-12T14:44:14.699Z,1.8
2018-06-12T14:49:14.434Z,1.8
2018-06-12T14:54:14.170Z,1.9
2018-06-12T14:59:15.067Z,1.9
2018-06-12T15:04:14.936Z,2.2
2018-06-12T15:09:14.760Z,2.2
2018-06-12T15:14:14.339Z,1.8
2018-06-12T15:19:14.984Z,1.8
2018-06-12T15:24:14.277Z,1.8
2018-06-12T15:29:15.007Z,1.8
2018-06-12T15:34:14.780Z,1.8
2018-06-12T15:39:14.537Z,1.8
2018-06-12T15:44:14.306Z,1.9
2018-06-12T15:49:15.061Z,1.9
2018-06-12T15:54:14.796Z,1.8
2018-06-12T15:59:14.483Z,1.8
2018-06-12T16:04:14.403Z,1.8
2018-06-12T16:09:15.174Z,1.8
2018-06-12T16:14:14.777Z,1.8
2018-06-12T16:19:14.442Z,1.8
2018-06-12T16:24:15.117Z,1.9
2018-06-12T16:29:14.805Z,1.9
2018-06-12T16:34:14.567Z,1.6
2018-06-12T16:39:15.564Z,1.6
2018-06-12T16:44:14.392Z,1.8
2018-06-12T16:49:15.229Z,1.8
2018-06-12T16:54:14.874Z,1.8
2018-06-12T16:59:14.554Z,1.8
2018-06-12T17:04:15.465Z,1.8
2018-06-12T17:09:15.205Z,1.8
2018-06-12T17:14:14.432Z,1.3
2018-06-12T17:19:15.282Z,1.3
2018-06-12T17:24:15.067Z,1.6
2018-06-12T17:29:14.763Z,1.6
2018-06-12T17:34:14.628Z,1.8
2018-06-12T17:39:14.411Z,1.8
2018-06-12T17:44:15.025Z,1.9
2018-06-12T17:49:14.794Z,1.9
2018-06-12T17:54:14.578Z,1.8
2018-06-12T17:59:15.330Z,1.8
2018-06-12T18:04:15.099Z,1.8
2018-06-12T18:09:14.981Z,1.8
2018-06-12T18:14:15.192Z,1.3
2018-06-12T18:19:14.918Z,1.3
2018-06-12T18:24:14.707Z,1.3
2018-06-12T18:29:14.512Z,1.3
2018-06-12T18:34:15.367Z,1.8
2018-06-12T18:39:15.203Z,1.8
2018-06-12T18:44:14.805Z,1.8
2018-06-12T18:49:14.559Z,1.8
2018-06-12T18:54:15.342Z,1.7
2018-06-12T18:59:14.984Z,1.7
2018-06-12T19:04:14.871Z,1.3
2018-06-12T19:09:14.653Z,1.3
2018-06-12T19:14:15.065Z,1.3
2018-06-12T19:19:14.922Z,1.3
2018-06-12T19:24:14.640Z,1.3
2018-06-12T19:29:15.408Z,1.3
2018-06-12T19:34:15.332Z,1.8
2018-06-12T19:39:15.052Z,1.8
2018-06-12T19:44:14.779Z,1.3
2018-06-12T19:49:14.539Z,1.3
2018-06-12T19:54:15.259Z,1.3
2018-06-12T19:59:14.927Z,1.3
2018-06-12T20:04:14.820Z,1.3
2018-06-12T20:09:15.541Z,1.3
2018-06-12T20:14:14.712Z,1.3
2018-06-12T20:19:15.516Z,1.3
2018-06-12T20:24:15.347Z,1.4
2018-06-12T20:29:15.080Z,1.4
2018-06-12T20:34:15.111Z,1.7
2018-06-12T20:39:14.905Z,1.7
2018-06-12T20:44:14.713Z,1.3
2018-06-12T20:49:15.584Z,1.3
2018-06-12T20:54:15.502Z,1.3
2018-06-12T20:59:15.379Z,1.3
2018-06-12T21:04:15.488Z,0.9
2018-06-12T21:09:15.193Z,0.9
2018-06-12T21:14:14.725Z,0.9
2018-06-12T21:19:15.548Z,0.9
2018-06-12T21:24:15.303Z,0.9
2018-06-12T21:29:14.983Z,0.9
2018-06-12T21:34:14.790Z,1.3
2018-06-12T21:39:15.530Z,1.3
2018-06-12T21:44:15.345Z,2
2018-06-12T21:49:15.097Z,2
2018-06-12T21:54:14.834Z,2.2
2018-06-12T21:59:15.601Z,2.2
2018-06-12T22:04:14.923Z,1.8
2018-06-12T22:09:15.659Z,1.8
2018-06-12T22:14:14.843Z,1.8
2018-06-12T22:19:15.664Z,1.8
2018-06-12T22:24:15.423Z,1.3
2018-06-12T22:29:15.078Z,1.3
2018-06-12T22:34:14.745Z,1.3
2018-06-12T22:39:15.442Z,1.3
2018-06-12T22:44:15.272Z,1.2
2018-06-12T22:49:15.036Z,1.2
2018-06-12T22:54:15.037Z,0.9
2018-06-12T22:59:14.796Z,0.9
2018-06-12T23:04:15.695Z,1.2
2018-06-12T23:09:15.469Z,1.2
2018-06-12T23:14:14.165Z,1.2
2018-06-12T23:19:15.043Z,1.2
2018-06-12T23:24:15.826Z,1.3
2018-06-12T23:29:15.551Z,1.3
2018-06-12T23:34:15.303Z,1.3
2018-06-12T23:39:15.061Z,1.3
2018-06-12T23:44:14.978Z,1.4
2018-06-12T23:49:15.761Z,1.4
2018-06-12T23:54:15.534Z,1.3
2018-06-12T23:59:15.304Z,1.3
